createdAt,value
2017-07-29T16:29:12.226Z,110
2017-07-29T16:39:12.284Z,90
2017-07-29T16:49:16.025Z,110
2017-07-29T16:59:12.169Z,80
2017-07-29T17:09:12.253Z,75
2017-07-29T17:19:12.285Z,70
2017-07-29T17:29:12.286Z,40
2017-07-29T17:39:12.230Z,30
2017-07-29T17:49:12.217Z,60
2017-07-29T17:59:12.253Z,50
2017-07-29T18:09:18.463Z,20
2017-07-29T18:19:17.583Z,15
2017-07-29T18:29:16.809Z,10
2017-07-29T18:39:17.024Z,10
2017-07-29T18:49:17.772Z,5
2017-07-29T18:59:18.729Z,0
2017-07-29T19:09:18.076Z,0
2017-07-29T19:19:16.371Z,0
2017-07-29T19:29:12.288Z,0
2017-07-29T19:39:12.226Z,0
2017-07-29T19:49:12.312Z,0
2017-07-29T19:59:12.264Z,0
2017-07-29T20:09:12.395Z,0
2017-07-29T20:19:12.320Z,0
2017-07-29T20:29:12.280Z,0
2017-07-29T20:39:12.362Z,0
2017-07-29T20:49:12.252Z,0
2017-07-29T20:59:12.220Z,0
2017-07-29T21:09:12.320Z,0
2017-07-29T21:19:12.229Z,0
2017-07-29T21:29:12.340Z,0
2017-07-29T21:39:12.365Z,0
2017-07-29T21:49:12.229Z,0
2017-07-29T21:59:12.316Z,0
2017-07-29T22:09:12.290Z,0
2017-07-29T22:19:12.343Z,0
2017-07-29T22:29:12.288Z,0
2017-07-29T22:39:12.221Z,0
2017-07-29T22:49:12.304Z,0
2017-07-29T22:59:12.284Z,0
2017-07-29T23:09:12.319Z,0
2017-07-29T23:19:12.295Z,0
2017-07-29T23:29:12.270Z,0
2017-07-29T23:39:12.302Z,0
2017-07-29T23:49:12.291Z,0
2017-07-29T23:59:12.358Z,0
